首页
METAR-TAF:

METAR-TAF

机场 :

Naval Auxiliary Landing Field Fentress

切萨皮克, 弗吉尼亚州, 美国

纬度: 36-42-03N, 经度: 076-07-42W, 海拔: 3米

当前天气观测

该预报发布于42分钟前的05:15 UTC
风速4节,风向西北
温度 20°C
湿度 83%
气压 1011 hPa
能見度: 16.1公里
少量云层高于800英尺
少量云层高于1300英尺
散云层高于1800英尺

METAR: KNFE 230515Z AUTO 32004KT 10SM FEW008 FEW013 SCT018 20/17 A2984 RMK AO2 T02000172

时间: 01:57 (05:57 UTC)


TAF: 丢失

超过4000个机场的气象观测和天气预报(METAR&TAF报告)。

可查询的气象台以黄色和红色小点在地图上表示。

将鼠标移到小点上方,可查看气象台名称。

然后点击查看天气观测和预报。

如需切换地图:点击带黑十字的绿色按钮放大地图;点击带横线的绿色按钮缩小地图;或者点击绿色箭头查看邻近地区的地图。


METAR-TAF: